Terminal Aerodrome Forecast
Issued by NWS

Home | Current Version | Previous Version | Text Only | Print | Product List | Glossary On
Versions: 1 2 3 4 5 6 7 8 9 10 11 12 13
000
FTUS44 KTSA 252300
TAFMLC
TAF
KMLC 252325Z 2600/2624 18013G20KT P6SM BKN200
     FM260500 18012KT P6SM BKN200 WS020/21035KT
     FM260900 17011KT P6SM BKN015
     FM261800 17012G18KT 6SM -RA BKN015=

USA.gov is the U.S. government's official web portal to all federal, state and local government web resources and services.